sensor_id;sensor_type;location;lat;lon;timestamp;pressure;altitude;pressure_sealevel;temperature
73734;BMP280;62039;50.000;9.064;2023-07-13T00:01:32;100193.88;;;22.46
73734;BMP280;62039;50.000;9.064;2023-07-13T00:04:02;100196.22;;;22.42
73734;BMP280;62039;50.000;9.064;2023-07-13T00:06:29;100213.69;;;22.38
73734;BMP280;62039;50.000;9.064;2023-07-13T00:08:56;100213.38;;;22.35
73734;BMP280;62039;50.000;9.064;2023-07-13T00:11:23;100213.84;;;22.31
73734;BMP280;62039;50.000;9.064;2023-07-13T00:13:50;100203.94;;;22.27
73734;BMP280;62039;50.000;9.064;2023-07-13T00:16:17;100202.00;;;22.22
73734;BMP280;62039;50.000;9.064;2023-07-13T00:18:44;100197.16;;;22.19
73734;BMP280;62039;50.000;9.064;2023-07-13T00:21:14;100206.44;;;22.17
73734;BMP280;62039;50.000;9.064;2023-07-13T00:23:42;100198.34;;;22.12
73734;BMP280;62039;50.000;9.064;2023-07-13T00:26:10;100204.97;;;22.09
73734;BMP280;62039;50.000;9.064;2023-07-13T00:28:39;100205.66;;;22.05
73734;BMP280;62039;50.000;9.064;2023-07-13T00:31:08;100208.59;;;22.03
73734;BMP280;62039;50.000;9.064;2023-07-13T00:33:36;100211.94;;;21.99
73734;BMP280;62039;50.000;9.064;2023-07-13T00:36:04;100204.47;;;21.96
73734;BMP280;62039;50.000;9.064;2023-07-13T00:38:33;100217.41;;;21.92
73734;BMP280;62039;50.000;9.064;2023-07-13T00:41:01;100222.38;;;21.88
73734;BMP280;62039;50.000;9.064;2023-07-13T00:43:28;100225.50;;;21.85
73734;BMP280;62039;50.000;9.064;2023-07-13T00:46:25;100220.53;;;21.77
73734;BMP280;62039;50.000;9.064;2023-07-13T00:48:55;100218.97;;;21.76
73734;BMP280;62039;50.000;9.064;2023-07-13T00:51:28;100214.31;;;21.72
73734;BMP280;62039;50.000;9.064;2023-07-13T00:54:02;100218.28;;;21.69
73734;BMP280;62039;50.000;9.064;2023-07-13T00:56:31;100217.34;;;21.64
73734;BMP280;62039;50.000;9.064;2023-07-13T00:58:59;100214.59;;;21.59
73734;BMP280;62039;50.000;9.064;2023-07-13T01:01:26;100216.13;;;21.54
73734;BMP280;62039;50.000;9.064;2023-07-13T01:03:54;100219.47;;;21.50
73734;BMP280;62039;50.000;9.064;2023-07-13T01:06:20;100215.44;;;21.47
73734;BMP280;62039;50.000;9.064;2023-07-13T01:08:48;100211.41;;;21.45
73734;BMP280;62039;50.000;9.064;2023-07-13T01:11:21;100210.03;;;21.42
73734;BMP280;62039;50.000;9.064;2023-07-13T01:13:49;100215.81;;;21.39
73734;BMP280;62039;50.000;9.064;2023-07-13T01:16:22;100229.56;;;21.36
73734;BMP280;62039;50.000;9.064;2023-07-13T01:18:51;100225.13;;;21.30
73734;BMP280;62039;50.000;9.064;2023-07-13T01:21:20;100215.81;;;21.28
73734;BMP280;62039;50.000;9.064;2023-07-13T01:23:47;100216.47;;;21.23
73734;BMP280;62039;50.000;9.064;2023-07-13T01:26:14;100213.50;;;21.20
73734;BMP280;62039;50.000;9.064;2023-07-13T01:28:42;100223.53;;;21.17
73734;BMP280;62039;50.000;9.064;2023-07-13T01:31:10;100219.53;;;21.15
73734;BMP280;62039;50.000;9.064;2023-07-13T01:33:37;100230.00;;;21.10
73734;BMP280;62039;50.000;9.064;2023-07-13T01:36:05;100232.09;;;21.08
73734;BMP280;62039;50.000;9.064;2023-07-13T01:38:35;100243.19;;;21.05
73734;BMP280;62039;50.000;9.064;2023-07-13T01:41:02;100240.19;;;21.01
73734;BMP280;62039;50.000;9.064;2023-07-13T01:43:30;100232.69;;;20.98
73734;BMP280;62039;50.000;9.064;2023-07-13T01:45:57;100236.03;;;20.94
73734;BMP280;62039;50.000;9.064;2023-07-13T01:48:43;100232.19;;;20.90
73734;BMP280;62039;50.000;9.064;2023-07-13T01:51:11;100238.81;;;20.87
73734;BMP280;62039;50.000;9.064;2023-07-13T01:53:40;100234.75;;;20.85
73734;BMP280;62039;50.000;9.064;2023-07-13T01:56:07;100237.06;;;20.81
73734;BMP280;62039;50.000;9.064;2023-07-13T01:58:35;100235.88;;;20.77
73734;BMP280;62039;50.000;9.064;2023-07-13T02:01:01;100245.13;;;20.74
73734;BMP280;62039;50.000;9.064;2023-07-13T02:03:28;100239.44;;;20.71
73734;BMP280;62039;50.000;9.064;2023-07-13T02:05:56;100244.63;;;20.66
73734;BMP280;62039;50.000;9.064;2023-07-13T02:08:23;100252.81;;;20.64
73734;BMP280;62039;50.000;9.064;2023-07-13T02:10:52;100255.34;;;20.59
73734;BMP280;62039;50.000;9.064;2023-07-13T02:13:19;100248.06;;;20.55
73734;BMP280;62039;50.000;9.064;2023-07-13T02:15:46;100253.81;;;20.52
73734;BMP280;62039;50.000;9.064;2023-07-13T02:18:16;100253.47;;;20.48
73734;BMP280;62039;50.000;9.064;2023-07-13T02:20:43;100252.31;;;20.44
73734;BMP280;62039;50.000;9.064;2023-07-13T02:23:10;100262.56;;;20.41
73734;BMP280;62039;50.000;9.064;2023-07-13T02:25:37;100258.53;;;20.38
73734;BMP280;62039;50.000;9.064;2023-07-13T02:28:07;100265.06;;;20.35
73734;BMP280;62039;50.000;9.064;2023-07-13T02:30:35;100269.22;;;20.31
73734;BMP280;62039;50.000;9.064;2023-07-13T02:33:02;100274.19;;;20.28
73734;BMP280;62039;50.000;9.064;2023-07-13T02:35:29;100272.19;;;20.23
73734;BMP280;62039;50.000;9.064;2023-07-13T02:37:56;100282.44;;;20.20
73734;BMP280;62039;50.000;9.064;2023-07-13T02:40:23;100291.88;;;20.16
73734;BMP280;62039;50.000;9.064;2023-07-13T02:42:50;100280.88;;;20.12
73734;BMP280;62039;50.000;9.064;2023-07-13T02:45:19;100291.56;;;20.06
73734;BMP280;62039;50.000;9.064;2023-07-13T02:47:46;100296.97;;;19.99
73734;BMP280;62039;50.000;9.064;2023-07-13T02:50:14;100291.75;;;19.92
73734;BMP280;62039;50.000;9.064;2023-07-13T02:52:41;100285.72;;;19.85
73734;BMP280;62039;50.000;9.064;2023-07-13T02:55:08;100293.53;;;19.80
73734;BMP280;62039;50.000;9.064;2023-07-13T02:57:36;100299.72;;;19.74
73734;BMP280;62039;50.000;9.064;2023-07-13T03:00:03;100292.63;;;19.68
73734;BMP280;62039;50.000;9.064;2023-07-13T03:02:34;100295.13;;;19.63
73734;BMP280;62039;50.000;9.064;2023-07-13T03:05:01;100293.16;;;19.58
73734;BMP280;62039;50.000;9.064;2023-07-13T03:07:29;100297.84;;;19.56
73734;BMP280;62039;50.000;9.064;2023-07-13T03:09:57;100297.50;;;19.53
73734;BMP280;62039;50.000;9.064;2023-07-13T03:12:24;100301.16;;;19.52
73734;BMP280;62039;50.000;9.064;2023-07-13T03:14:51;100306.84;;;19.49
73734;BMP280;62039;50.000;9.064;2023-07-13T03:17:18;100305.22;;;19.48
73734;BMP280;62039;50.000;9.064;2023-07-13T03:19:48;100298.34;;;19.47
73734;BMP280;62039;50.000;9.064;2023-07-13T03:22:15;100300.38;;;19.45
73734;BMP280;62039;50.000;9.064;2023-07-13T03:24:42;100305.09;;;19.43
73734;BMP280;62039;50.000;9.064;2023-07-13T03:27:09;100306.09;;;19.42
73734;BMP280;62039;50.000;9.064;2023-07-13T03:29:36;100301.88;;;19.41
73734;BMP280;62039;50.000;9.064;2023-07-13T03:32:04;100302.91;;;19.40
73734;BMP280;62039;50.000;9.064;2023-07-13T03:34:32;100319.81;;;19.39
73734;BMP280;62039;50.000;9.064;2023-07-13T03:37:01;100312.28;;;19.36
73734;BMP280;62039;50.000;9.064;2023-07-13T03:39:28;100321.25;;;19.35
73734;BMP280;62039;50.000;9.064;2023-07-13T03:41:57;100320.09;;;19.31
73734;BMP280;62039;50.000;9.064;2023-07-13T03:44:24;100325.59;;;19.29
73734;BMP280;62039;50.000;9.064;2023-07-13T03:46:51;100333.75;;;19.28
73734;BMP280;62039;50.000;9.064;2023-07-13T03:49:18;100337.44;;;19.27
73734;BMP280;62039;50.000;9.064;2023-07-13T03:51:45;100332.34;;;19.25
73734;BMP280;62039;50.000;9.064;2023-07-13T03:54:14;100332.56;;;19.24
73734;BMP280;62039;50.000;9.064;2023-07-13T03:56:41;100331.97;;;19.21
73734;BMP280;62039;50.000;9.064;2023-07-13T03:59:08;100336.69;;;19.19
73734;BMP280;62039;50.000;9.064;2023-07-13T04:01:35;100337.72;;;19.18
73734;BMP280;62039;50.000;9.064;2023-07-13T04:04:02;100345.03;;;19.16
73734;BMP280;62039;50.000;9.064;2023-07-13T04:06:32;100333.06;;;19.14
73734;BMP280;62039;50.000;9.064;2023-07-13T04:09:00;100333.28;;;19.12
73734;BMP280;62039;50.000;9.064;2023-07-13T04:11:31;100342.47;;;19.10
73734;BMP280;62039;50.000;9.064;2023-07-13T04:13:59;100344.50;;;19.08
73734;BMP280;62039;50.000;9.064;2023-07-13T04:16:26;100358.78;;;19.07
73734;BMP280;62039;50.000;9.064;2023-07-13T04:18:54;100357.97;;;19.06
73734;BMP280;62039;50.000;9.064;2023-07-13T04:21:22;100364.28;;;19.05
73734;BMP280;62039;50.000;9.064;2023-07-13T04:23:49;100364.72;;;19.02
73734;BMP280;62039;50.000;9.064;2023-07-13T04:26:15;100371.03;;;19.01
73734;BMP280;62039;50.000;9.064;2023-07-13T04:28:45;100365.16;;;18.99
73734;BMP280;62039;50.000;9.064;2023-07-13T04:31:12;100369.84;;;18.97
73734;BMP280;62039;50.000;9.064;2023-07-13T04:33:39;100367.19;;;18.97
73734;BMP280;62039;50.000;9.064;2023-07-13T04:36:06;100372.47;;;18.97
73734;BMP280;62039;50.000;9.064;2023-07-13T04:38:34;100377.78;;;18.97
73734;BMP280;62039;50.000;9.064;2023-07-13T04:41:02;100373.09;;;18.99
73734;BMP280;62039;50.000;9.064;2023-07-13T04:43:31;100367.56;;;19.01
73734;BMP280;62039;50.000;9.064;2023-07-13T04:46:03;100367.97;;;19.04
73734;BMP280;62039;50.000;9.064;2023-07-13T04:48:31;100372.03;;;19.07
73734;BMP280;62039;50.000;9.064;2023-07-13T04:50:58;100376.88;;;19.10
73734;BMP280;62039;50.000;9.064;2023-07-13T04:53:26;100375.44;;;19.14
73734;BMP280;62039;50.000;9.064;2023-07-13T04:55:53;100380.28;;;19.17
73734;BMP280;62039;50.000;9.064;2023-07-13T04:58:21;100373.53;;;19.21
73734;BMP280;62039;50.000;9.064;2023-07-13T05:00:49;100375.53;;;19.26
73734;BMP280;62039;50.000;9.064;2023-07-13T05:03:18;100369.38;;;19.32
73734;BMP280;62039;50.000;9.064;2023-07-13T05:05:54;100364.84;;;19.39
73734;BMP280;62039;50.000;9.064;2023-07-13T05:08:21;100368.44;;;19.44
73734;BMP280;62039;50.000;9.064;2023-07-13T05:10:48;100366.75;;;19.50
73734;BMP280;62039;50.000;9.064;2023-07-13T05:13:15;100359.59;;;19.57
73734;BMP280;62039;50.000;9.064;2023-07-13T05:15:42;100363.19;;;19.63
73734;BMP280;62039;50.000;9.064;2023-07-13T05:18:09;100370.06;;;19.70
73734;BMP280;62039;50.000;9.064;2023-07-13T05:20:39;100374.88;;;19.80
73734;BMP280;62039;50.000;9.064;2023-07-13T05:23:06;100364.19;;;19.86
73734;BMP280;62039;50.000;9.064;2023-07-13T05:25:33;100368.75;;;19.97
73734;BMP280;62039;50.000;9.064;2023-07-13T05:28:00;100369.06;;;20.08
73734;BMP280;62039;50.000;9.064;2023-07-13T05:30:27;100371.41;;;20.16
73734;BMP280;62039;50.000;9.064;2023-07-13T05:32:54;100377.03;;;20.26
73734;BMP280;62039;50.000;9.064;2023-07-13T05:35:21;100374.63;;;20.36
73734;BMP280;62039;50.000;9.064;2023-07-13T05:37:50;100369.03;;;20.44
73734;BMP280;62039;50.000;9.064;2023-07-13T05:40:17;100376.69;;;20.52
73734;BMP280;62039;50.000;9.064;2023-07-13T05:42:44;100376.59;;;20.59
73734;BMP280;62039;50.000;9.064;2023-07-13T05:45:11;100378.13;;;20.66
73734;BMP280;62039;50.000;9.064;2023-07-13T05:47:38;100371.91;;;20.72
73734;BMP280;62039;50.000;9.064;2023-07-13T05:50:07;100370.22;;;20.78
73734;BMP280;62039;50.000;9.064;2023-07-13T05:52:34;100372.19;;;20.83
73734;BMP280;62039;50.000;9.064;2023-07-13T05:55:04;100377.88;;;20.86
73734;BMP280;62039;50.000;9.064;2023-07-13T05:57:31;100376.16;;;20.92
73734;BMP280;62039;50.000;9.064;2023-07-13T05:59:58;100380.53;;;20.98
73734;BMP280;62039;50.000;9.064;2023-07-13T06:02:25;100379.88;;;21.02
73734;BMP280;62039;50.000;9.064;2023-07-13T06:04:52;100380.00;;;21.07
73734;BMP280;62039;50.000;9.064;2023-07-13T06:07:19;100392.16;;;21.15
73734;BMP280;62039;50.000;9.064;2023-07-13T06:09:46;100389.94;;;21.24
73734;BMP280;62039;50.000;9.064;2023-07-13T06:12:16;100387.56;;;21.34
73734;BMP280;62039;50.000;9.064;2023-07-13T06:14:43;100387.78;;;21.44
73734;BMP280;62039;50.000;9.064;2023-07-13T06:17:09;100387.47;;;21.52
73734;BMP280;62039;50.000;9.064;2023-07-13T06:19:37;100390.59;;;21.61
73734;BMP280;62039;50.000;9.064;2023-07-13T06:22:04;100393.72;;;21.69
73734;BMP280;62039;50.000;9.064;2023-07-13T06:24:31;100396.59;;;21.79
73734;BMP280;62039;50.000;9.064;2023-07-13T06:26:58;100401.31;;;21.89
73734;BMP280;62039;50.000;9.064;2023-07-13T06:29:28;100392.53;;;22.00
73734;BMP280;62039;50.000;9.064;2023-07-13T06:31:55;100395.44;;;22.10
73734;BMP280;62039;50.000;9.064;2023-07-13T06:34:22;100397.47;;;22.20
73734;BMP280;62039;50.000;9.064;2023-07-13T06:36:49;100396.38;;;22.32
73734;BMP280;62039;50.000;9.064;2023-07-13T06:39:16;100398.22;;;22.44
73734;BMP280;62039;50.000;9.064;2023-07-13T06:41:43;100400.63;;;22.57
73734;BMP280;62039;50.000;9.064;2023-07-13T06:44:10;100396.06;;;22.69
73734;BMP280;62039;50.000;9.064;2023-07-13T06:46:39;100401.31;;;22.81
73734;BMP280;62039;50.000;9.064;2023-07-13T06:49:08;100401.41;;;22.86
73734;BMP280;62039;50.000;9.064;2023-07-13T06:51:35;100403.09;;;22.92
73734;BMP280;62039;50.000;9.064;2023-07-13T06:54:02;100399.00;;;23.01
73734;BMP280;62039;50.000;9.064;2023-07-13T06:56:29;100401.06;;;23.11
73734;BMP280;62039;50.000;9.064;2023-07-13T06:58:56;100408.75;;;23.24
73734;BMP280;62039;50.000;9.064;2023-07-13T07:01:23;100402.75;;;23.33
73734;BMP280;62039;50.000;9.064;2023-07-13T07:03:53;100406.88;;;23.41
73734;BMP280;62039;50.000;9.064;2023-07-13T07:06:21;100402.69;;;23.45
73734;BMP280;62039;50.000;9.064;2023-07-13T07:08:49;100411.22;;;23.47
73734;BMP280;62039;50.000;9.064;2023-07-13T07:11:18;100419.28;;;23.52
73734;BMP280;62039;50.000;9.064;2023-07-13T07:13:45;100409.28;;;23.59
73734;BMP280;62039;50.000;9.064;2023-07-13T07:16:12;100411.56;;;23.67
73734;BMP280;62039;50.000;9.064;2023-07-13T07:18:39;100408.00;;;23.78
73734;BMP280;62039;50.000;9.064;2023-07-13T07:21:09;100408.94;;;23.89
73734;BMP280;62039;50.000;9.064;2023-07-13T07:23:36;100413.59;;;23.99
73734;BMP280;62039;50.000;9.064;2023-07-13T07:26:03;100414.53;;;24.09
73734;BMP280;62039;50.000;9.064;2023-07-13T07:28:31;100419.78;;;24.21
73734;BMP280;62039;50.000;9.064;2023-07-13T07:31:00;100412.13;;;24.30
73734;BMP280;62039;50.000;9.064;2023-07-13T07:33:33;100411.94;;;24.36
73734;BMP280;62039;50.000;9.064;2023-07-13T07:36:00;100410.09;;;24.37
73734;BMP280;62039;50.000;9.064;2023-07-13T07:38:33;100410.09;;;24.37
73734;BMP280;62039;50.000;9.064;2023-07-13T07:41:03;100417.03;;;24.38
73734;BMP280;62039;50.000;9.064;2023-07-13T07:43:33;100419.72;;;24.38
73734;BMP280;62039;50.000;9.064;2023-07-13T07:46:00;100410.91;;;24.37
73734;BMP280;62039;50.000;9.064;2023-07-13T07:48:33;100415.19;;;24.38
73734;BMP280;62039;50.000;9.064;2023-07-13T07:51:00;100418.16;;;24.42
73734;BMP280;62039;50.000;9.064;2023-07-13T07:53:27;100417.97;;;24.48
73734;BMP280;62039;50.000;9.064;2023-07-13T07:55:58;100417.47;;;24.51
73734;BMP280;62039;50.000;9.064;2023-07-13T07:58:45;100410.50;;;24.50
73734;BMP280;62039;50.000;9.064;2023-07-13T08:01:15;100414.22;;;24.49
73734;BMP280;62039;50.000;9.064;2023-07-13T08:03:45;100414.22;;;24.49
73734;BMP280;62039;50.000;9.064;2023-07-13T08:06:15;100421.19;;;24.50
73734;BMP280;62039;50.000;9.064;2023-07-13T08:09:02;100412.66;;;24.53
73734;BMP280;62039;50.000;9.064;2023-07-13T08:11:31;100417.56;;;24.61
73734;BMP280;62039;50.000;9.064;2023-07-13T08:14:01;100415.53;;;24.69
73734;BMP280;62039;50.000;9.064;2023-07-13T08:16:29;100415.09;;;24.77
73734;BMP280;62039;50.000;9.064;2023-07-13T08:18:56;100422.13;;;24.88
73734;BMP280;62039;50.000;9.064;2023-07-13T08:21:22;100420.06;;;24.95
73734;BMP280;62039;50.000;9.064;2023-07-13T08:23:49;100420.41;;;25.03
73734;BMP280;62039;50.000;9.064;2023-07-13T08:26:16;100415.13;;;25.14
73734;BMP280;62039;50.000;9.064;2023-07-13T08:28:46;100406.19;;;25.25
73734;BMP280;62039;50.000;9.064;2023-07-13T08:31:13;100411.06;;;25.33
73734;BMP280;62039;50.000;9.064;2023-07-13T08:33:41;100406.81;;;25.37
73734;BMP280;62039;50.000;9.064;2023-07-13T08:36:08;100398.81;;;25.42
73734;BMP280;62039;50.000;9.064;2023-07-13T08:38:35;100406.59;;;25.49
73734;BMP280;62039;50.000;9.064;2023-07-13T08:41:10;100405.84;;;25.53
73734;BMP280;62039;50.000;9.064;2023-07-13T08:43:38;100408.00;;;25.56
73734;BMP280;62039;50.000;9.064;2023-07-13T08:46:13;100402.66;;;25.61
73734;BMP280;62039;50.000;9.064;2023-07-13T08:48:44;100404.06;;;25.69
73734;BMP280;62039;50.000;9.064;2023-07-13T08:51:23;100397.19;;;25.73
73734;BMP280;62039;50.000;9.064;2023-07-13T08:53:55;100409.50;;;25.79
73734;BMP280;62039;50.000;9.064;2023-07-13T08:56:25;100411.94;;;25.86
73734;BMP280;62039;50.000;9.064;2023-07-13T08:58:56;100404.25;;;25.94
73734;BMP280;62039;50.000;9.064;2023-07-13T09:01:31;100395.16;;;26.00
73734;BMP280;62039;50.000;9.064;2023-07-13T09:04:05;100398.13;;;26.04
73734;BMP280;62039;50.000;9.064;2023-07-13T09:06:40;100394.66;;;26.08
73734;BMP280;62039;50.000;9.064;2023-07-13T09:09:17;100405.66;;;26.12
73734;BMP280;62039;50.000;9.064;2023-07-13T09:11:50;100398.44;;;26.17
73734;BMP280;62039;50.000;9.064;2023-07-13T09:14:38;100399.28;;;26.23
73734;BMP280;62039;50.000;9.064;2023-07-13T09:17:14;100406.81;;;26.26
73734;BMP280;62039;50.000;9.064;2023-07-13T09:19:47;100401.69;;;26.25
73734;BMP280;62039;50.000;9.064;2023-07-13T09:22:18;100400.34;;;26.22
73734;BMP280;62039;50.000;9.064;2023-07-13T09:24:53;100402.72;;;26.13
73734;BMP280;62039;50.000;9.064;2023-07-13T09:27:26;100398.41;;;26.07
73734;BMP280;62039;50.000;9.064;2023-07-13T09:29:58;100404.00;;;26.01
73734;BMP280;62039;50.000;9.064;2023-07-13T09:32:31;100400.47;;;25.95
73734;BMP280;62039;50.000;9.064;2023-07-13T09:34:59;100396.16;;;25.89
73734;BMP280;62039;50.000;9.064;2023-07-13T09:37:30;100410.09;;;25.86
73734;BMP280;62039;50.000;9.064;2023-07-13T09:39:59;100410.00;;;25.76
73734;BMP280;62039;50.000;9.064;2023-07-13T09:42:28;100421.69;;;25.60
73734;BMP280;62039;50.000;9.064;2023-07-13T09:44:56;100409.25;;;25.43
73734;BMP280;62039;50.000;9.064;2023-07-13T09:47:27;100414.53;;;25.33
73734;BMP280;62039;50.000;9.064;2023-07-13T09:49:58;100407.00;;;25.25
73734;BMP280;62039;50.000;9.064;2023-07-13T09:52:41;100409.28;;;25.17
73734;BMP280;62039;50.000;9.064;2023-07-13T09:55:24;100411.41;;;25.15
73734;BMP280;62039;50.000;9.064;2023-07-13T09:57:51;100416.75;;;25.15
73734;BMP280;62039;50.000;9.064;2023-07-13T10:00:22;100412.78;;;25.17
73734;BMP280;62039;50.000;9.064;2023-07-13T10:02:59;100407.44;;;25.17
73734;BMP280;62039;50.000;9.064;2023-07-13T10:05:37;100415.13;;;25.14
73734;BMP280;62039;50.000;9.064;2023-07-13T10:08:05;100403.66;;;25.13
73734;BMP280;62039;50.000;9.064;2023-07-13T10:10:32;100401.00;;;25.13
73734;BMP280;62039;50.000;9.064;2023-07-13T10:12:59;100400.72;;;25.15
73734;BMP280;62039;50.000;9.064;2023-07-13T10:15:27;100406.88;;;25.15
73734;BMP280;62039;50.000;9.064;2023-07-13T10:17:55;100404.75;;;25.17
73734;BMP280;62039;50.000;9.064;2023-07-13T10:20:22;100404.00;;;25.22
73734;BMP280;62039;50.000;9.064;2023-07-13T10:22:56;100400.31;;;25.28
73734;BMP280;62039;50.000;9.064;2023-07-13T10:25:26;100401.69;;;25.30
73734;BMP280;62039;50.000;9.064;2023-07-13T10:27:58;100411.31;;;25.31
73734;BMP280;62039;50.000;9.064;2023-07-13T10:30:29;100409.19;;;25.33
73734;BMP280;62039;50.000;9.064;2023-07-13T10:33:00;100401.19;;;25.38
73734;BMP280;62039;50.000;9.064;2023-07-13T10:35:29;100398.31;;;25.45
73734;BMP280;62039;50.000;9.064;2023-07-13T10:38:02;100409.34;;;25.54
73734;BMP280;62039;50.000;9.064;2023-07-13T10:40:33;100409.34;;;25.59
73734;BMP280;62039;50.000;9.064;2023-07-13T10:43:06;100412.03;;;25.59
73734;BMP280;62039;50.000;9.064;2023-07-13T10:45:36;100402.66;;;25.56
73734;BMP280;62039;50.000;9.064;2023-07-13T10:48:05;100394.88;;;25.55
73734;BMP280;62039;50.000;9.064;2023-07-13T10:50:34;100399.72;;;25.58
73734;BMP280;62039;50.000;9.064;2023-07-13T10:53:18;100397.59;;;25.60
73734;BMP280;62039;50.000;9.064;2023-07-13T10:55:56;100391.19;;;25.61
73734;BMP280;62039;50.000;9.064;2023-07-13T10:58:31;100407.78;;;25.63
73734;BMP280;62039;50.000;9.064;2023-07-13T11:01:03;100389.59;;;25.65
73734;BMP280;62039;50.000;9.064;2023-07-13T11:03:32;100397.91;;;25.68
73734;BMP280;62039;50.000;9.064;2023-07-13T11:06:12;100384.31;;;25.75
73734;BMP280;62039;50.000;9.064;2023-07-13T11:08:54;100393.94;;;25.71
73734;BMP280;62039;50.000;9.064;2023-07-13T11:11:36;100397.09;;;25.68
73734;BMP280;62039;50.000;9.064;2023-07-13T11:14:09;100389.41;;;25.71
73734;BMP280;62039;50.000;9.064;2023-07-13T11:16:51;100383.25;;;25.76
73734;BMP280;62039;50.000;9.064;2023-07-13T11:22:16;100375.06;;;25.93
73734;BMP280;62039;50.000;9.064;2023-07-13T11:24:57;100385.00;;;26.02
73734;BMP280;62039;50.000;9.064;2023-07-13T11:27:50;100369.00;;;26.12
73734;BMP280;62039;50.000;9.064;2023-07-13T11:30:30;100367.97;;;26.29
73734;BMP280;62039;50.000;9.064;2023-07-13T11:33:12;100366.41;;;26.43
73734;BMP280;62039;50.000;9.064;2023-07-13T11:35:45;100359.22;;;26.53
73734;BMP280;62039;50.000;9.064;2023-07-13T11:38:16;100372.84;;;26.62
73734;BMP280;62039;50.000;9.064;2023-07-13T11:40:48;100364.56;;;26.69
73734;BMP280;62039;50.000;9.064;2023-07-13T11:43:23;100360.06;;;26.74
73734;BMP280;62039;50.000;9.064;2023-07-13T11:45:50;100360.59;;;26.81
73734;BMP280;62039;50.000;9.064;2023-07-13T11:48:20;100351.75;;;26.91
73734;BMP280;62039;50.000;9.064;2023-07-13T11:51:05;100352.81;;;27.00
73734;BMP280;62039;50.000;9.064;2023-07-13T11:53:38;100361.13;;;27.09
73734;BMP280;62039;50.000;9.064;2023-07-13T11:56:08;100353.91;;;27.14
73734;BMP280;62039;50.000;9.064;2023-07-13T11:58:36;100352.00;;;27.20
73734;BMP280;62039;50.000;9.064;2023-07-13T12:01:04;100357.94;;;27.27
73734;BMP280;62039;50.000;9.064;2023-07-13T12:03:32;100349.88;;;27.32
73734;BMP280;62039;50.000;9.064;2023-07-13T12:06:01;100356.28;;;27.36
73734;BMP280;62039;50.000;9.064;2023-07-13T12:08:29;100358.69;;;27.38
73734;BMP280;62039;50.000;9.064;2023-07-13T12:11:00;100360.03;;;27.40
73734;BMP280;62039;50.000;9.064;2023-07-13T12:13:35;100359.22;;;27.40
73734;BMP280;62039;50.000;9.064;2023-07-13T12:16:07;100353.59;;;27.41
73734;BMP280;62039;50.000;9.064;2023-07-13T12:18:37;100371.28;;;27.47
73734;BMP280;62039;50.000;9.064;2023-07-13T12:21:04;100357.84;;;27.52
73734;BMP280;62039;50.000;9.064;2023-07-13T12:23:32;100363.19;;;27.57
73734;BMP280;62039;50.000;9.064;2023-07-13T12:26:02;100362.66;;;27.65
73734;BMP280;62039;50.000;9.064;2023-07-13T12:28:37;100357.28;;;27.70
73734;BMP280;62039;50.000;9.064;2023-07-13T12:31:07;100366.69;;;27.73
73734;BMP280;62039;50.000;9.064;2023-07-13T12:33:41;100377.41;;;27.73
73734;BMP280;62039;50.000;9.064;2023-07-13T12:36:11;100364.81;;;27.73
73734;BMP280;62039;50.000;9.064;2023-07-13T12:38:39;100373.38;;;27.70
73734;BMP280;62039;50.000;9.064;2023-07-13T12:41:08;100374.50;;;27.69
73734;BMP280;62039;50.000;9.064;2023-07-13T12:43:38;100384.38;;;27.69
73734;BMP280;62039;50.000;9.064;2023-07-13T12:46:17;100388.41;;;27.66
73734;BMP280;62039;50.000;9.064;2023-07-13T12:48:48;100389.22;;;27.62
73734;BMP280;62039;50.000;9.064;2023-07-13T12:51:30;100384.16;;;27.55
73734;BMP280;62039;50.000;9.064;2023-07-13T12:54:05;100382.00;;;27.52
73734;BMP280;62039;50.000;9.064;2023-07-13T12:56:33;100377.72;;;27.46
73734;BMP280;62039;50.000;9.064;2023-07-13T12:59:04;100376.13;;;27.40
73734;BMP280;62039;50.000;9.064;2023-07-13T13:01:34;100377.22;;;27.34
73734;BMP280;62039;50.000;9.064;2023-07-13T13:04:02;100379.38;;;27.27
73734;BMP280;62039;50.000;9.064;2023-07-13T13:06:30;100384.16;;;27.20
73734;BMP280;62039;50.000;9.064;2023-07-13T13:08:59;100376.66;;;27.12
73734;BMP280;62039;50.000;9.064;2023-07-13T13:11:28;100371.84;;;27.04
73734;BMP280;62039;50.000;9.064;2023-07-13T13:13:55;100377.22;;;26.98
73734;BMP280;62039;50.000;9.064;2023-07-13T13:16:31;100379.91;;;26.93
73734;BMP280;62039;50.000;9.064;2023-07-13T13:19:01;100387.66;;;26.85
73734;BMP280;62039;50.000;9.064;2023-07-13T13:21:32;100390.59;;;26.73
73734;BMP280;62039;50.000;9.064;2023-07-13T13:23:59;100379.56;;;26.65
73734;BMP280;62039;50.000;9.064;2023-07-13T13:26:26;100390.28;;;26.59
73734;BMP280;62039;50.000;9.064;2023-07-13T13:28:53;100389.72;;;26.57
73734;BMP280;62039;50.000;9.064;2023-07-13T13:31:20;100384.63;;;26.56
73734;BMP280;62039;50.000;9.064;2023-07-13T13:33:50;100393.75;;;26.55
73734;BMP280;62039;50.000;9.064;2023-07-13T13:36:18;100388.41;;;26.55
73734;BMP280;62039;50.000;9.064;2023-07-13T13:38:47;100390.53;;;26.53
73734;BMP280;62039;50.000;9.064;2023-07-13T13:41:14;100392.66;;;26.51
73734;BMP280;62039;50.000;9.064;2023-07-13T13:43:42;100391.06;;;26.50
73734;BMP280;62039;50.000;9.064;2023-07-13T13:46:14;100395.84;;;26.43
73734;BMP280;62039;50.000;9.064;2023-07-13T13:48:43;100397.97;;;26.36
73734;BMP280;62039;50.000;9.064;2023-07-13T13:51:17;100396.09;;;26.31
73734;BMP280;62039;50.000;9.064;2023-07-13T13:53:45;100396.59;;;26.23
73734;BMP280;62039;50.000;9.064;2023-07-13T13:56:13;100397.88;;;26.15
73734;BMP280;62039;50.000;9.064;2023-07-13T13:58:40;100406.97;;;26.09
73734;BMP280;62039;50.000;9.064;2023-07-13T14:01:12;100405.34;;;26.03
73734;BMP280;62039;50.000;9.064;2023-07-13T14:03:40;100415.47;;;25.96
73734;BMP280;62039;50.000;9.064;2023-07-13T14:06:09;100402.31;;;25.90
73734;BMP280;62039;50.000;9.064;2023-07-13T14:08:40;100414.06;;;25.84
73734;BMP280;62039;50.000;9.064;2023-07-13T14:11:11;100409.50;;;25.79
73734;BMP280;62039;50.000;9.064;2023-07-13T14:13:42;100423.13;;;25.72